Time;durP1;ratioP1;P1;durP2;ratioP2;P2;SDS_P1;SDS_P2;PMS_P1;PMS_P2;Temp;Humidity;BMP_temperature;BMP_pressure;BME280_temperature;BME280_humidity;BME280_pressure;Samples;Min_cycle;Max_cycle;Signal;HPM_P1;HPM_P2
2022/01/04 00:00:43;;;;;;;26.95;14.55;;;;;;;0.69;100.00;94980.53;5079219;28;20039;-61
2022/01/04 00:03:10;;;;;;;24.35;12.80;;;;;;;0.62;100.00;94968.53;5077302;28;20048;-61
2022/01/04 00:05:38;;;;;;;40.08;15.25;;;;;;;0.66;100.00;94973.16;5075668;28;20040;-62
2022/01/04 00:08:09;;;;;;;36.17;15.70;;;;;;;0.64;100.00;94961.47;5071245;28;20430;-62
2022/01/04 00:10:37;;;;;;;41.90;18.63;;;;;;;0.65;100.00;94963.06;5072214;28;20048;-61
2022/01/04 00:13:23;;;;;;;27.58;13.32;;;;;;;0.69;100.00;94970.25;5076461;28;20052;-61
2022/01/04 00:15:53;;;;;;;33.08;14.13;;;;;;;0.67;100.00;94966.28;5073299;28;20033;-61
2022/01/04 00:18:20;;;;;;;29.88;13.63;;;;;;;0.61;100.00;94957.47;5073622;28;20407;-62
2022/01/04 00:20:48;;;;;;;31.73;14.20;;;;;;;0.63;100.00;94965.00;5077714;28;20036;-62
2022/01/04 00:23:16;;;;;;;24.65;12.63;;;;;;;0.64;100.00;94967.41;5076352;28;20048;-62
2022/01/04 00:25:43;;;;;;;30.10;13.88;;;;;;;0.66;100.00;94964.69;5075437;28;20044;-62
2022/01/04 00:28:11;;;;;;;28.67;13.75;;;;;;;0.60;100.00;94971.25;5076124;28;20036;-61
2022/01/04 00:30:39;;;;;;;35.15;13.73;;;;;;;0.55;100.00;94970.97;5077574;28;20044;-61
2022/01/04 00:33:08;;;;;;;26.50;12.23;;;;;;;0.48;100.00;94968.25;5078649;28;20050;-61
2022/01/04 00:35:35;;;;;;;29.23;12.43;;;;;;;0.43;100.00;94970.50;5070376;28;20051;-62
2022/01/04 00:38:02;;;;;;;25.98;13.10;;;;;;;0.35;100.00;94980.78;5070895;28;20066;-62
2022/01/04 00:40:29;;;;;;;21.95;11.82;;;;;;;0.33;100.00;94982.72;5074790;28;20040;-62
2022/01/04 00:42:58;;;;;;;21.88;11.27;;;;;;;0.29;100.00;94984.81;5078247;28;20048;-61
2022/01/04 00:45:32;;;;;;;21.42;11.75;;;;;;;0.31;100.00;94974.41;5077866;28;20125;-61
2022/01/04 00:50:28;;;;;;;22.77;10.27;;;;;;;0.23;100.00;94984.66;5078016;28;19927;-61
2022/01/04 00:52:56;;;;;;;22.63;11.82;;;;;;;0.18;100.00;94983.38;5082182;28;20071;-61
2022/01/04 00:55:22;;;;;;;23.65;10.40;;;;;;;0.09;100.00;94974.13;5074577;28;20048;-62
2022/01/04 00:57:49;;;;;;;26.48;13.05;;;;;;;0.04;100.00;94981.47;5075384;28;20486;-61
2022/01/04 01:00:17;;;;;;;28.10;13.48;;;;;;;0.01;100.00;94981.00;5073850;28;20043;-62
2022/01/04 01:02:44;;;;;;;27.05;12.05;;;;;;;-0.04;100.00;94973.78;5076124;28;20521;-62
2022/01/04 01:05:13;;;;;;;24.33;12.25;;;;;;;0.00;100.00;94972.53;5077389;28;20040;-61
2022/01/04 01:07:40;;;;;;;35.65;12.75;;;;;;;-0.01;100.00;94968.34;5078912;28;20036;-62
2022/01/04 01:12:39;;;;;;;26.50;12.35;;;;;;;0.01;100.00;94963.88;5078940;28;20053;-61
2022/01/04 01:15:08;;;;;;;16.30;10.32;;;;;;;-0.02;100.00;94966.75;5079512;28;20040;-62
2022/01/04 01:17:35;;;;;;;16.23;7.00;;;;;;;-0.14;100.00;94957.81;5075686;28;20063;-62
2022/01/04 01:20:04;;;;;;;18.15;8.07;;;;;;;-0.22;100.00;94951.75;5078891;28;20061;-61
2022/01/04 01:22:31;;;;;;;20.05;8.60;;;;;;;-0.24;100.00;94943.41;5071815;28;20123;-62
2022/01/04 01:24:58;;;;;;;16.20;7.82;;;;;;;-0.24;100.00;94940.03;5077479;28;20425;-62
2022/01/04 01:27:25;;;;;;;12.98;6.43;;;;;;;-0.24;100.00;94938.28;5076411;28;20040;-62
2022/01/04 01:29:52;;;;;;;16.90;6.13;;;;;;;-0.26;100.00;94940.19;5075831;28;20526;-62
2022/01/04 01:32:18;;;;;;;21.23;8.80;;;;;;;-0.30;100.00;94944.06;5073866;28;20056;-62
2022/01/04 01:34:45;;;;;;;18.45;7.38;;;;;;;-0.29;100.00;94944.84;5076504;28;20047;-62
2022/01/04 01:37:12;;;;;;;15.85;7.97;;;;;;;-0.30;100.00;94954.28;5076921;28;20044;-62
2022/01/04 01:39:39;;;;;;;14.20;6.95;;;;;;;-0.28;100.00;94956.69;5077507;28;20044;-62
2022/01/04 01:42:07;;;;;;;12.10;6.07;;;;;;;-0.31;100.00;94962.91;5075437;28;20055;-62
2022/01/04 01:44:35;;;;;;;11.88;5.93;;;;;;;-0.33;100.00;94954.59;5078358;28;20040;-62
2022/01/04 01:47:02;;;;;;;13.82;6.80;;;;;;;-0.26;100.00;94955.56;5075831;28;20051;-62
2022/01/04 01:49:29;;;;;;;16.27;7.20;;;;;;;-0.24;100.00;94953.63;5075308;28;20063;-61
2022/01/04 01:51:58;;;;;;;15.30;6.47;;;;;;;-0.25;100.00;94957.16;5075120;28;20081;-62
2022/01/04 01:54:25;;;;;;;17.08;5.65;;;;;;;-0.33;100.00;94954.59;5077829;28;20052;-62
2022/01/04 01:56:52;;;;;;;9.32;4.95;;;;;;;-0.36;100.00;94954.94;5071227;28;20043;-62
2022/01/04 01:59:19;;;;;;;11.65;5.53;;;;;;;-0.34;100.00;94953.03;5071960;28;20040;-62
2022/01/04 02:01:46;;;;;;;14.60;7.53;;;;;;;-0.32;100.00;94951.09;5074643;28;20040;-62
2022/01/04 02:04:13;;;;;;;10.55;6.07;;;;;;;-0.27;100.00;94948.03;5079739;28;20049;-62
2022/01/04 02:06:40;;;;;;;10.13;6.60;;;;;;;-0.30;100.00;94944.06;5076629;28;20044;-62
2022/01/04 02:09:07;;;;;;;8.57;5.00;;;;;;;-0.31;100.00;94942.44;5073925;28;20049;-62
2022/01/04 02:11:35;;;;;;;15.77;7.47;;;;;;;-0.33;100.00;94944.38;5071245;28;20052;-62
2022/01/04 02:14:02;;;;;;;13.75;8.18;;;;;;;-0.33;100.00;94939.25;5075622;28;20046;-62
2022/01/04 02:16:31;;;;;;;17.70;7.70;;;;;;;-0.40;100.00;94939.09;5077732;28;20032;-62
2022/01/04 02:19:07;;;;;;;17.67;7.57;;;;;;;-0.37;100.00;94932.06;5072251;28;20043;-62
2022/01/04 02:21:35;;;;;;;24.52;9.05;;;;;;;-0.38;100.00;94941.47;5070755;28;20037;-62
2022/01/04 02:24:03;;;;;;;20.13;9.73;;;;;;;-0.47;100.00;94942.44;5074449;28;20051;-62
2022/01/04 02:26:31;;;;;;;24.48;10.32;;;;;;;-0.53;100.00;94943.09;5070865;28;20040;-62
2022/01/04 02:28:59;;;;;;;23.13;10.30;;;;;;;-0.53;100.00;94937.97;5078135;28;20118;-62
2022/01/04 02:31:27;;;;;;;21.25;10.23;;;;;;;-0.54;100.00;94946.59;5074606;28;20037;-62
2022/01/04 02:33:54;;;;;;;18.77;9.02;;;;;;;-0.64;100.00;94952.66;5073863;28;20065;-62
2022/01/04 02:36:21;;;;;;;19.77;10.02;;;;;;;-0.69;100.00;94954.91;5070540;28;20557;-62
2022/01/04 02:38:51;;;;;;;16.35;8.55;;;;;;;-0.66;100.00;94951.25;5070529;28;20048;-62
2022/01/04 02:41:18;;;;;;;22.45;9.30;;;;;;;-0.69;100.00;94939.56;5073817;28;20449;-62
2022/01/04 02:43:45;;;;;;;19.52;9.30;;;;;;;-0.79;100.00;94938.91;5076574;28;20073;-62
2022/01/04 02:46:12;;;;;;;22.23;10.15;;;;;;;-0.77;100.00;94942.13;5072318;28;20041;-62
2022/01/04 02:48:44;;;;;;;19.85;10.02;;;;;;;-0.90;100.00;94918.75;5075612;28;20483;-62
2022/01/04 02:51:12;;;;;;;17.52;9.50;;;;;;;-0.79;100.00;94931.25;5077443;28;20083;-54
2022/01/04 02:53:39;;;;;;;17.75;8.93;;;;;;;-0.85;100.00;94929.31;5077463;28;20512;-56
2022/01/04 02:56:06;;;;;;;20.75;8.85;;;;;;;-0.83;100.00;94942.72;5073062;28;20437;-55
2022/01/04 02:58:32;;;;;;;17.55;8.32;;;;;;;-0.83;100.00;94947.84;5075256;28;20052;-54
2022/01/04 03:00:59;;;;;;;17.52;8.13;;;;;;;-0.90;100.00;94946.88;5081316;28;20044;-55
2022/01/04 03:03:27;;;;;;;16.25;8.82;;;;;;;-1.01;100.00;94930.88;5078627;28;20050;-55
2022/01/04 03:05:54;;;;;;;20.40;10.07;;;;;;;-1.01;100.00;94936.00;5076808;28;20127;-56
2022/01/04 03:08:22;;;;;;;15.95;8.20;;;;;;;-1.02;100.00;94944.63;5074008;28;20045;-55
2022/01/04 03:10:49;;;;;;;19.50;9.10;;;;;;;-1.10;100.00;94952.25;5077131;28;20497;-54
2022/01/04 03:13:16;;;;;;;17.95;6.57;;;;;;;-1.15;100.00;94954.50;5077544;28;20480;-54
2022/01/04 03:15:45;;;;;;;16.38;6.70;;;;;;;-1.18;100.00;94949.69;5075800;28;20134;-52
2022/01/04 03:18:12;;;;;;;11.13;7.00;;;;;;;-1.19;100.00;94945.50;5076309;28;20044;-54
2022/01/04 03:20:39;;;;;;;13.57;6.90;;;;;;;-1.17;100.00;94936.75;5075880;28;20494;-54
2022/01/04 03:23:09;;;;;;;12.13;6.72;;;;;;;-1.26;100.00;94931.75;5075420;28;20718;-54
2022/01/04 03:25:37;;;;;;;13.77;6.88;;;;;;;-1.25;100.00;94928.25;5072134;28;20064;-55
2022/01/04 03:28:05;;;;;;;15.95;6.75;;;;;;;-1.23;100.00;94931.47;5072628;28;20055;-54
2022/01/04 03:30:32;;;;;;;18.33;7.72;;;;;;;-1.18;100.00;94934.34;5073243;28;20054;-54
2022/01/04 03:33:00;;;;;;;14.57;6.88;;;;;;;-1.20;100.00;94936.25;5078383;28;20044;-53
2022/01/04 03:35:27;;;;;;;14.73;8.25;;;;;;;-1.24;100.00;94940.88;5074334;28;20497;-55
2022/01/04 03:37:54;;;;;;;19.88;9.00;;;;;;;-1.32;100.00;94932.38;5071712;28;20049;-54
2022/01/04 03:40:21;;;;;;;11.65;7.32;;;;;;;-1.28;100.00;94928.56;5074067;28;20040;-52
2022/01/04 03:42:48;;;;;;;20.50;7.05;;;;;;;-1.28;100.00;94928.56;5068715;28;20045;-55
2022/01/04 03:45:15;;;;;;;14.15;6.57;;;;;;;-1.29;100.00;94930.31;5070850;28;20040;-54
2022/01/04 03:47:42;;;;;;;10.55;6.32;;;;;;;-1.20;100.00;94936.25;5074244;28;20035;-54
2022/01/04 03:50:09;;;;;;;13.23;6.63;;;;;;;-1.17;100.00;94941.03;5077020;28;20040;-55
2022/01/04 03:52:36;;;;;;;12.55;7.28;;;;;;;-1.24;100.00;94934.94;5070861;28;20044;-52
2022/01/04 03:55:07;;;;;;;18.15;7.10;;;;;;;-1.17;100.00;94946.16;5077548;28;20467;-55
2022/01/04 03:57:35;;;;;;;14.07;7.32;;;;;;;-1.16;100.00;94947.78;5077394;28;20052;-53
2022/01/04 04:00:07;;;;;;;13.20;7.22;;;;;;;-1.06;100.00;94952.75;5073664;28;20032;-50
2022/01/04 04:02:39;;;;;;;18.73;6.60;;;;;;;-1.05;100.00;94944.91;5075987;28;20596;-53
2022/01/04 04:05:07;;;;;;;18.52;8.35;;;;;;;-1.07;100.00;94946.84;5071973;28;20468;-53
2022/01/04 04:07:34;;;;;;;14.50;8.20;;;;;;;-1.08;100.00;94945.25;5073031;28;20044;-51
2022/01/04 04:10:01;;;;;;;17.23;7.38;;;;;;;-1.09;100.00;94948.75;5072894;28;20044;-52
2022/01/04 04:12:27;;;;;;;18.08;8.93;;;;;;;-1.07;100.00;94936.59;5075519;28;20510;-53
2022/01/04 04:14:55;;;;;;;16.27;8.02;;;;;;;-1.09;100.00;94938.53;5068422;28;20105;-51
2022/01/04 04:17:22;;;;;;;20.30;8.63;;;;;;;-1.18;100.00;94936.91;5076394;28;20043;-53
2022/01/04 04:19:49;;;;;;;20.50;8.25;;;;;;;-1.11;100.00;94950.66;5075408;28;20045;-53
2022/01/04 04:22:16;;;;;;;18.67;7.50;;;;;;;-1.10;100.00;94947.13;5073240;28;20403;-54
2022/01/04 04:24:44;;;;;;;14.35;8.52;;;;;;;-1.08;100.00;94944.44;5075008;28;20032;-53
2022/01/04 04:27:12;;;;;;;16.40;7.75;;;;;;;-1.11;100.00;94945.56;5079646;28;20414;-54
2022/01/04 04:29:39;;;;;;;18.40;8.68;;;;;;;-1.09;100.00;94948.75;5078615;28;20044;-54
2022/01/04 04:32:06;;;;;;;18.35;8.27;;;;;;;-1.07;100.00;94951.94;5080636;28;20501;-53
2022/01/04 04:34:33;;;;;;;17.70;8.57;;;;;;;-1.09;100.00;94943.63;5077798;28;20044;-54
2022/01/04 04:37:00;;;;;;;21.45;10.65;;;;;;;-1.04;100.00;94946.53;5072093;28;20037;-54
2022/01/04 04:39:27;;;;;;;26.13;12.00;;;;;;;-0.99;100.00;94957.09;5074435;28;20048;-54
2022/01/04 04:41:55;;;;;;;25.48;13.90;;;;;;;-0.96;100.00;94961.88;5076456;28;20036;-55
2022/01/04 04:44:22;;;;;;;32.63;14.07;;;;;;;-0.98;100.00;94966.34;5074756;28;20040;-55
2022/01/04 04:46:49;;;;;;;28.58;12.07;;;;;;;-0.98;100.00;94968.91;5078662;28;20403;-55
2022/01/04 04:49:16;;;;;;;25.02;12.25;;;;;;;-0.97;100.00;94962.06;5076572;28;20048;-53
2022/01/04 04:51:43;;;;;;;27.40;12.50;;;;;;;-1.08;100.00;94960.59;5078007;28;20036;-54
2022/01/04 04:54:10;;;;;;;23.58;13.35;;;;;;;-1.15;100.00;94954.50;5080751;28;20050;-55
2022/01/04 04:56:38;;;;;;;28.98;13.40;;;;;;;-1.06;100.00;94963.78;5073387;28;20040;-54
2022/01/04 04:59:06;;;;;;;25.88;12.43;;;;;;;-1.09;100.00;94961.53;5076896;28;20101;-56
2022/01/04 05:01:33;;;;;;;22.13;12.02;;;;;;;-1.09;100.00;94950.50;5076521;28;20054;-55
2022/01/04 05:04:01;;;;;;;41.22;18.00;;;;;;;-1.15;100.00;94959.59;5077759;28;20040;-54
2022/01/04 05:06:28;;;;;;;42.45;17.08;;;;;;;-1.24;100.00;94960.50;5074063;28;20045;-55
2022/01/04 05:08:54;;;;;;;39.63;18.52;;;;;;;-1.17;100.00;94961.50;5074596;28;20036;-55
2022/01/04 05:11:21;;;;;;;31.42;16.52;;;;;;;-1.21;100.00;94962.78;5079699;28;20048;-55
2022/01/04 05:13:48;;;;;;;32.60;16.13;;;;;;;-1.23;100.00;94957.81;5071522;28;20048;-54
2022/01/04 05:16:15;;;;;;;32.00;16.55;;;;;;;-1.18;100.00;94965.81;5069131;28;20048;-55
2022/01/04 05:18:42;;;;;;;50.97;22.23;;;;;;;-1.20;100.00;94969.50;5076395;28;20059;-54
2022/01/04 05:21:09;;;;;;;51.92;22.70;;;;;;;-1.39;100.00;94966.22;5072896;28;20406;-55
2022/01/04 05:23:36;;;;;;;44.35;20.45;;;;;;;-1.40;100.00;94962.06;5075703;28;20048;-54
2022/01/04 05:26:03;;;;;;;43.22;21.80;;;;;;;-1.29;100.00;94957.66;5073269;28;20051;-52
2022/01/04 05:28:30;;;;;;;51.80;24.42;;;;;;;-1.36;100.00;94955.69;5076810;28;20033;-55
2022/01/04 05:30:57;;;;;;;52.55;23.67;;;;;;;-1.42;100.00;94953.75;5069542;28;20045;-52
2022/01/04 05:33:23;;;;;;;45.22;22.70;;;;;;;-1.40;100.00;94951.84;5079616;28;20119;-54
2022/01/04 05:35:53;;;;;;;46.97;24.52;;;;;;;-1.38;100.00;94957.59;5071230;28;20041;-54
2022/01/04 05:38:20;;;;;;;45.53;21.60;;;;;;;-1.42;100.00;94933.31;5074419;28;20037;-55
2022/01/04 05:40:47;;;;;;;44.63;20.70;;;;;;;-1.44;100.00;94945.44;5074628;28;20046;-54
2022/01/04 05:43:14;;;;;;;51.40;23.38;;;;;;;-1.49;100.00;94950.22;5070642;28;20803;-51
2022/01/04 05:45:41;;;;;;;58.17;24.88;;;;;;;-1.52;100.00;94947.97;5069264;28;20051;-54
2022/01/04 05:48:08;;;;;;;66.63;30.40;;;;;;;-1.52;100.00;94953.06;5071125;28;20123;-55
2022/01/04 05:50:35;;;;;;;90.55;41.30;;;;;;;-1.49;100.00;94968.09;5070915;28;20497;-53
2022/01/04 05:53:02;;;;;;;45.28;24.25;;;;;;;-1.49;100.00;94968.09;5072987;28;20510;-53
2022/01/04 05:55:28;;;;;;;34.85;16.48;;;;;;;-1.56;100.00;94955.13;5076511;28;20044;-54
2022/01/04 05:57:55;;;;;;;41.88;20.63;;;;;;;-1.60;100.00;94953.03;5068073;28;20043;-53
2022/01/04 06:00:22;;;;;;;55.17;24.08;;;;;;;-1.59;100.00;94955.44;5072227;28;20542;-54
2022/01/04 06:02:49;;;;;;;31.45;16.25;;;;;;;-1.56;100.00;94956.88;5068221;28;20498;-56
2022/01/04 06:05:16;;;;;;;28.23;16.52;;;;;;;-1.60;100.00;94956.41;5074393;28;20418;-54
2022/01/04 06:07:43;;;;;;;32.13;14.48;;;;;;;-1.62;100.00;94957.47;5069453;28;20044;-52
2022/01/04 06:10:11;;;;;;;30.95;13.07;;;;;;;-1.60;100.00;94960.72;5076540;28;20058;-54
2022/01/04 06:15:11;;;;;;;18.38;10.10;;;;;;;-1.55;100.00;94958.47;5078179;28;20484;-53
2022/01/04 06:17:41;;;;;;;22.20;11.00;;;;;;;-1.50;100.00;94956.25;5073634;28;20040;-54
2022/01/04 06:20:15;;;;;;;26.13;13.63;;;;;;;-1.43;100.00;94964.91;5072221;28;20040;-54
2022/01/04 06:22:43;;;;;;;20.05;10.48;;;;;;;-1.36;100.00;94958.25;5075110;28;20040;-54
2022/01/04 06:25:17;;;;;;;16.63;9.73;;;;;;;-1.31;100.00;94962.13;5072294;28;20052;-53
2022/01/04 06:27:47;;;;;;;18.45;8.18;;;;;;;-1.25;100.00;94958.94;5072561;28;20051;-54
2022/01/04 06:30:16;;;;;;;17.30;8.48;;;;;;;-1.22;100.00;94951.75;5073979;28;20409;-54
2022/01/04 06:32:49;;;;;;;15.55;7.53;;;;;;;-1.16;100.00;94952.88;5074206;28;20105;-51
2022/01/04 06:35:16;;;;;;;21.15;10.90;;;;;;;-1.06;100.00;94947.63;5071207;28;20611;-56
2022/01/04 06:37:45;;;;;;;19.13;7.28;;;;;;;-1.03;100.00;94943.00;5075735;28;20032;-53
2022/01/04 06:40:13;;;;;;;11.77;7.00;;;;;;;-0.93;100.00;94936.97;5073583;28;20044;-54
2022/01/04 06:42:40;;;;;;;17.80;7.47;;;;;;;-0.83;100.00;94937.63;5072724;28;20047;-54
2022/01/04 06:45:07;;;;;;;11.90;6.60;;;;;;;-0.71;100.00;94931.25;5073041;28;20059;-55
2022/01/04 06:47:34;;;;;;;13.55;6.60;;;;;;;-0.59;100.00;94924.84;5070849;28;20111;-55
2022/01/04 06:50:01;;;;;;;15.57;7.20;;;;;;;-0.47;100.00;94921.97;5080080;28;20425;-55
2022/01/04 06:52:28;;;;;;;12.30;6.63;;;;;;;-0.33;100.00;94923.88;5079408;28;20526;-54
2022/01/04 06:54:55;;;;;;;21.75;7.45;;;;;;;-0.23;100.00;94919.41;5073450;28;20044;-55
2022/01/04 06:57:22;;;;;;;11.88;6.32;;;;;;;-0.08;100.00;94921.31;5073371;28;20052;-54
2022/01/04 06:59:49;;;;;;;19.42;8.25;;;;;;;0.07;100.00;94924.00;5076011;28;20048;-54
2022/01/04 07:02:16;;;;;;;16.83;8.98;;;;;;;0.12;100.00;94927.66;5072746;28;20151;-54
2022/01/04 07:04:43;;;;;;;22.00;11.48;;;;;;;0.14;100.00;94930.84;5066044;28;20081;-53
2022/01/04 07:07:10;;;;;;;32.25;16.77;;;;;;;0.29;100.00;94932.75;5075553;28;20043;-55
2022/01/04 07:09:37;;;;;;;56.67;29.77;;;;;;;0.36;100.00;94943.94;5072874;28;20411;-54
2022/01/04 07:12:04;;;;;;;55.88;27.85;;;;;;;0.47;100.00;94943.59;5073194;28;20063;-55
2022/01/04 07:14:31;;;;;;;73.97;33.47;;;;;;;0.48;100.00;94942.63;5067293;28;20048;-54
2022/01/04 07:16:58;;;;;;;74.55;34.15;;;;;;;0.53;100.00;94945.50;5071500;28;20040;-53
2022/01/04 07:19:25;;;;;;;60.08;29.35;;;;;;;0.69;100.00;94943.84;5072690;28;20514;-49
2022/01/04 07:21:52;;;;;;;49.90;23.08;;;;;;;0.79;100.00;94949.53;5072513;28;20040;-55
2022/01/04 07:24:19;;;;;;;58.50;30.30;;;;;;;0.90;100.00;94949.19;5066695;28;20064;-53
2022/01/04 07:26:46;;;;;;;55.92;30.02;;;;;;;1.03;100.00;94950.41;5069859;28;20072;-53
2022/01/04 07:29:12;;;;;;;63.08;27.73;;;;;;;1.14;100.00;94947.47;5069751;28;20044;-55
2022/01/04 07:31:39;;;;;;;55.70;27.85;;;;;;;1.23;100.00;94945.66;5074497;28;20052;-53
2022/01/04 07:34:06;;;;;;;69.75;33.40;;;;;;;1.34;100.00;94942.69;5071531;28;20062;-52
2022/01/04 07:36:33;;;;;;;70.90;29.48;;;;;;;1.41;100.00;94940.25;5071887;28;20044;-54
2022/01/04 07:39:00;;;;;;;55.42;23.83;;;;;;;1.51;100.00;94939.06;5066158;28;20045;-55
2022/01/04 07:41:27;;;;;;;42.00;17.60;;;;;;;1.62;100.00;94945.53;5071356;28;20048;-55
2022/01/04 07:43:54;;;;;;;34.10;17.27;;;;;;;1.70;100.00;94948.03;5076717;28;20040;-51
2022/01/04 07:46:23;;;;;;;39.72;17.70;;;;;;;1.82;100.00;94950.19;5073708;28;20119;-56
2022/01/04 07:48:50;;;;;;;32.72;16.75;;;;;;;1.81;100.00;94949.38;5072484;28;20048;-54
2022/01/04 07:51:18;;;;;;;55.35;21.15;;;;;;;1.86;100.00;94951.44;5070583;28;20515;-54
2022/01/04 07:53:45;;;;;;;34.80;17.48;;;;;;;1.93;100.00;94947.22;5069169;28;20048;-55
2022/01/04 07:56:12;;;;;;;45.42;23.45;;;;;;;1.93;100.00;94936.94;5067713;28;20044;-54
2022/01/04 07:58:39;;;;;;;61.10;28.02;;;;;;;2.06;100.00;94942.28;5070546;28;20040;-56
2022/01/04 08:01:06;;;;;;;46.97;25.17;;;;;;;2.05;100.00;94930.41;5070337;28;20505;-56
2022/01/04 08:03:33;;;;;;;40.40;22.25;;;;;;;2.10;100.00;94917.03;5074876;28;20058;-56
2022/01/04 08:06:00;;;;;;;31.35;16.17;;;;;;;2.23;100.00;94924.13;5064722;28;20050;-53
2022/01/04 08:08:26;;;;;;;27.40;15.07;;;;;;;2.34;100.00;94931.41;5073893;28;20051;-56
2022/01/04 08:10:54;;;;;;;55.78;21.77;;;;;;;2.34;100.00;94931.41;5073074;28;20056;-53
2022/01/04 08:13:21;;;;;;;38.78;19.17;;;;;;;2.40;100.00;94922.97;5077221;28;20040;-55
2022/01/04 08:15:47;;;;;;;32.53;14.85;;;;;;;2.33;100.00;94911.81;5069776;28;20059;-55
2022/01/04 08:18:14;;;;;;;28.67;14.93;;;;;;;2.51;100.00;94923.53;5074547;28;20044;-53
2022/01/04 08:20:42;;;;;;;25.40;14.50;;;;;;;2.47;100.00;94923.88;5073801;28;20041;-54
2022/01/04 08:23:12;;;;;;;25.63;12.57;;;;;;;2.59;100.00;94933.69;5070682;28;20046;-57
2022/01/04 08:25:39;;;;;;;31.05;15.85;;;;;;;2.64;100.00;94933.97;5073535;28;20044;-53
2022/01/04 08:28:06;;;;;;;30.67;15.25;;;;;;;2.73;100.00;94926.94;5067852;28;20090;-53
2022/01/04 08:30:33;;;;;;;32.20;16.15;;;;;;;2.95;100.00;94935.50;5069966;28;20067;-53
2022/01/04 08:33:00;;;;;;;38.47;16.77;;;;;;;3.09;100.00;94937.25;5070361;28;20043;-55
2022/01/04 08:35:27;;;;;;;45.60;19.73;;;;;;;3.25;100.00;94937.03;5072598;28;20094;-54
2022/01/04 08:37:54;;;;;;;45.05;22.55;;;;;;;3.41;100.00;94928.28;5072037;28;20044;-54
2022/01/04 08:40:21;;;;;;;39.67;18.70;;;;;;;3.59;100.00;94917.53;5069098;28;20098;-55
2022/01/04 08:42:48;;;;;;;41.03;20.52;;;;;;;3.63;100.00;94918.75;5076470;28;20094;-55
2022/01/04 08:45:15;;;;;;;42.00;21.15;;;;;;;3.72;100.00;94910.91;5079317;28;20043;-54
2022/01/04 08:47:42;;;;;;;37.78;17.42;;;;;;;3.82;100.00;94911.41;5078247;28;20162;-54
2022/01/04 08:50:11;;;;;;;31.08;16.48;;;;;;;3.90;100.00;94913.81;5071206;28;20040;-55
2022/01/04 08:52:38;;;;;;;34.78;15.73;;;;;;;4.02;100.00;94916.69;5073469;28;20447;-55
2022/01/04 08:55:06;;;;;;;29.00;14.07;;;;;;;4.12;100.00;94911.19;5071055;28;20044;-56
2022/01/04 08:57:33;;;;;;;31.50;17.23;;;;;;;4.12;100.00;94906.03;5070396;28;20044;-55
2022/01/04 09:00:00;;;;;;;27.90;13.05;;;;;;;4.17;100.00;94908.84;5076373;28;20043;-53
2022/01/04 09:02:27;;;;;;;27.77;14.88;;;;;;;4.11;100.00;94909.63;5072910;28;20115;-56
2022/01/04 09:04:55;;;;;;;26.65;13.57;;;;;;;4.16;100.00;94907.25;5075900;28;20051;-56
2022/01/04 09:07:21;;;;;;;27.85;14.77;;;;;;;4.12;100.00;94896.53;5069736;28;20040;-56
2022/01/04 09:09:49;;;;;;;31.13;16.17;;;;;;;4.20;100.00;94890.44;5078183;28;20035;-54
2022/01/04 09:12:36;;;;;;;30.13;14.60;;;;;;;4.30;100.00;94888.28;5078359;28;20399;-54
2022/01/04 09:15:27;;;;;;;26.92;14.70;;;;;;;4.24;100.00;94883.91;5070728;28;20047;-55
2022/01/04 09:20:38;;;;;;;32.33;17.45;;;;;;;4.49;100.00;94876.50;5075657;28;20531;-55
2022/01/04 09:23:05;;;;;;;27.95;16.00;;;;;;;4.52;100.00;94877.88;5082894;28;20111;-56
2022/01/04 09:25:32;;;;;;;31.80;15.18;;;;;;;4.56;100.00;94872.16;5076481;28;20044;-55
2022/01/04 09:27:59;;;;;;;37.03;17.67;;;;;;;4.57;100.00;94862.63;5074132;28;20041;-56
2022/01/04 09:30:26;;;;;;;33.35;16.00;;;;;;;4.60;100.00;94865.63;5076470;28;20047;-56
2022/01/04 09:32:53;;;;;;;45.75;19.48;;;;;;;4.70;100.00;94844.66;5076919;28;20448;-57
2022/01/04 09:35:20;;;;;;;36.78;20.77;;;;;;;5.00;100.00;94859.00;5071597;28;20093;-57
2022/01/04 09:37:47;;;;;;;29.55;15.43;;;;;;;5.06;100.00;94851.28;5066302;28;20051;-57
2022/01/04 09:40:14;;;;;;;31.27;15.00;;;;;;;5.09;100.00;94844.94;5064986;28;20044;-57
2022/01/04 09:42:42;;;;;;;34.92;16.15;;;;;;;5.14;100.00;94843.34;5066208;28;20052;-56
2022/01/04 09:45:09;;;;;;;31.45;15.63;;;;;;;5.32;100.00;94844.56;5064813;28;20052;-57
2022/01/04 09:47:36;;;;;;;28.27;15.68;;;;;;;5.14;100.00;94843.34;5067719;28;20064;-57
2022/01/04 09:50:08;;;;;;;30.10;15.50;;;;;;;5.27;100.00;94826.28;5068558;28;20135;-56
2022/01/04 09:52:38;;;;;;;26.33;14.43;;;;;;;5.55;100.00;94828.69;5072185;28;20040;-57
2022/01/04 09:55:06;;;;;;;100.60;35.00;;;;;;;5.75;100.00;94820.94;5070608;28;20051;-57
2022/01/04 09:57:32;;;;;;;38.97;18.60;;;;;;;6.02;100.00;94818.34;5070621;28;20813;-57
2022/01/04 09:59:59;;;;;;;26.17;14.68;;;;;;;6.20;100.00;94815.88;5067564;28;20410;-56
2022/01/04 10:02:30;;;;;;;26.17;14.70;;;;;;;6.37;100.00;94812.84;5069658;28;20145;-57
2022/01/04 10:05:20;;;;;;;35.58;18.77;;;;;;;6.58;98.22;94807.38;5071308;28;20087;-56
2022/01/04 10:07:59;;;;;;;30.10;14.27;;;;;;;6.51;97.38;94796.28;5074261;28;20042;-56
2022/01/04 10:10:26;;;;;;;29.45;14.93;;;;;;;6.60;98.71;94804.59;5073809;28;20044;-58
2022/01/04 10:12:59;;;;;;;33.83;16.08;;;;;;;6.85;97.76;94797.69;5067977;28;20556;-56
2022/01/04 10:15:45;;;;;;;26.08;14.55;;;;;;;6.92;93.95;94792.47;5067682;28;20036;-57
2022/01/04 10:18:17;;;;;;;30.80;15.52;;;;;;;6.95;93.32;94792.06;5067045;28;20502;-55
2022/01/04 10:20:52;;;;;;;24.75;13.65;;;;;;;7.07;93.12;94785.19;5069630;28;20048;-57
2022/01/04 10:23:23;;;;;;;25.65;13.13;;;;;;;7.18;91.18;94780.34;5066442;28;20048;-57
2022/01/04 10:25:51;;;;;;;27.65;14.70;;;;;;;7.21;92.95;94772.16;5073488;28;20033;-57
2022/01/04 10:28:29;;;;;;;27.60;14.80;;;;;;;7.45;92.41;94765.38;5064951;28;20040;-58
2022/01/04 10:31:00;;;;;;;24.90;13.75;;;;;;;7.59;90.81;94760.88;5070745;28;20040;-56
2022/01/04 10:33:28;;;;;;;25.27;14.07;;;;;;;7.57;89.61;94755.13;5069214;28;20075;-57
2022/01/04 10:35:56;;;;;;;31.05;14.20;;;;;;;7.64;88.89;94753.28;5072073;28;20630;-57
2022/01/04 10:38:43;;;;;;;30.17;15.02;;;;;;;7.73;89.23;94749.41;5075552;28;20051;-57
2022/01/04 10:41:15;;;;;;;26.02;13.13;;;;;;;7.91;89.78;94745.25;5068972;28;20044;-57
2022/01/04 10:43:49;;;;;;;27.83;15.10;;;;;;;8.05;89.04;94738.91;5072921;28;20048;-57
2022/01/04 10:46:30;;;;;;;28.95;15.93;;;;;;;8.36;88.92;94737.13;5074254;28;20044;-57
2022/01/04 10:48:57;;;;;;;46.35;22.20;;;;;;;8.58;87.24;94732.28;5066138;28;20505;-56
2022/01/04 10:51:26;;;;;;;26.40;15.63;;;;;;;8.94;87.07;94726.16;5058582;28;20044;-55
2022/01/04 10:54:06;;;;;;;30.23;16.45;;;;;;;9.24;83.68;94725.31;5066575;28;20429;-55
2022/01/04 10:56:37;;;;;;;28.08;14.60;;;;;;;9.40;81.56;94718.69;5068053;28;20477;-56
2022/01/04 10:59:10;;;;;;;25.77;14.18;;;;;;;9.44;81.32;94719.00;5063590;28;20048;-56
2022/01/04 11:01:42;;;;;;;26.73;14.50;;;;;;;9.61;81.96;94725.09;5073773;28;20044;-56
2022/01/04 11:04:16;;;;;;;29.90;14.95;;;;;;;9.21;81.18;94725.75;5079295;28;20041;-56
2022/01/04 11:06:44;;;;;;;26.75;15.90;;;;;;;9.38;81.62;94720.69;5073112;28;20045;-56
2022/01/04 11:09:12;;;;;;;26.33;15.00;;;;;;;9.72;82.63;94721.72;5072829;28;20778;-56
2022/01/04 11:11:40;;;;;;;26.90;14.65;;;;;;;9.31;81.58;94715.63;5067223;28;20056;-57
2022/01/04 11:14:11;;;;;;;27.60;14.88;;;;;;;9.25;81.92;94697.53;5071775;28;20048;-56
2022/01/04 11:16:38;;;;;;;30.85;14.43;;;;;;;9.49;83.15;94712.13;5072671;28;20040;-57
2022/01/04 11:19:05;;;;;;;28.60;15.13;;;;;;;9.83;83.20;94711.50;5065359;28;20055;-56
2022/01/04 11:21:41;;;;;;;28.08;13.85;;;;;;;10.16;81.56;94715.31;5066803;28;20048;-56
2022/01/04 11:24:12;;;;;;;25.17;14.57;;;;;;;10.41;79.44;94707.22;5068361;28;20055;-56
2022/01/04 11:26:43;;;;;;;24.33;13.68;;;;;;;10.55;77.72;94710.31;5067137;28;20049;-57
2022/01/04 11:29:11;;;;;;;28.42;13.57;;;;;;;10.34;76.58;94702.16;5065506;28;20033;-56
2022/01/04 11:31:47;;;;;;;26.38;13.45;;;;;;;10.37;77.96;94701.69;5064128;28;20049;-57